Time;durP1;ratioP1;P1;durP2;ratioP2;P2;SDS_P1;SDS_P2;PMS_P1;PMS_P2;Temp;Humidity;BMP_temperature;BMP_pressure;BME280_temperature;BME280_humidity;BME280_pressure;Samples;Min_cycle;Max_cycle;Signal;HPM_P1;HPM_P2
2023/01/20 00:02:00;;;;;;;2.50;2.30;;;0.10;99.90;;;;;;5052672;28;20243;-63
2023/01/20 00:04:29;;;;;;;2.03;1.85;;;0.10;99.90;;;;;;5054075;28;20230;-63
2023/01/20 00:06:57;;;;;;;1.67;1.58;;;0.10;99.90;;;;;;5047290;28;20568;-63
2023/01/20 00:09:25;;;;;;;1.75;1.40;;;0.10;99.90;;;;;;5047351;28;20279;-63
2023/01/20 00:11:53;;;;;;;1.23;1.10;;;0.10;99.90;;;;;;5051179;28;20223;-63
2023/01/20 00:14:20;;;;;;;1.90;1.80;;;0.10;99.90;;;;;;5050332;28;20215;-61
2023/01/20 00:16:48;;;;;;;1.25;1.15;;;0.10;99.90;;;;;;5049670;28;20204;-63
2023/01/20 00:19:16;;;;;;;1.42;1.33;;;0.10;99.90;;;;;;5051212;28;20214;-62
2023/01/20 00:21:45;;;;;;;2.05;1.88;;;0.00;99.90;;;;;;5049602;28;20283;-62
2023/01/20 00:24:13;;;;;;;2.42;2.22;;;0.00;99.90;;;;;;5048682;28;20227;-62
2023/01/20 00:26:41;;;;;;;3.55;2.10;;;0.00;99.90;;;;;;5051327;28;20219;-62
2023/01/20 00:29:09;;;;;;;1.48;1.38;;;0.00;99.90;;;;;;5048591;28;20573;-63
2023/01/20 00:31:37;;;;;;;2.15;1.85;;;0.00;99.90;;;;;;5049199;28;20266;-63
2023/01/20 00:34:05;;;;;;;1.60;1.25;;;0.00;99.90;;;;;;5047051;28;20207;-63
2023/01/20 00:36:34;;;;;;;2.63;2.00;;;0.00;99.90;;;;;;5051702;28;21527;-62
2023/01/20 00:39:04;;;;;;;2.55;2.28;;;0.00;99.90;;;;;;5049421;28;20231;-63
2023/01/20 00:41:31;;;;;;;1.88;1.25;;;0.00;99.90;;;;;;5051774;28;20719;-62
2023/01/20 00:44:00;;;;;;;3.50;1.60;;;-0.10;99.90;;;;;;5050405;28;20210;-64
2023/01/20 00:46:27;;;;;;;2.03;1.75;;;-0.10;99.90;;;;;;5080458;22;20235;-64
2023/01/20 00:48:55;;;;;;;1.58;1.48;;;0.00;99.90;;;;;;5073128;28;20199;-64
2023/01/20 00:51:23;;;;;;;1.98;1.40;;;-0.10;99.90;;;;;;5072857;28;20246;-63
2023/01/20 00:53:51;;;;;;;1.38;1.25;;;-0.10;99.90;;;;;;5062816;28;20227;-63
2023/01/20 00:56:20;;;;;;;1.50;1.35;;;-0.10;99.90;;;;;;5061972;28;20307;-64
2023/01/20 00:58:48;;;;;;;1.35;1.25;;;-0.20;99.90;;;;;;5069910;28;20279;-64
2023/01/20 01:01:16;;;;;;;1.20;1.10;;;-0.30;99.90;;;;;;5069842;28;20210;-64
2023/01/20 01:03:44;;;;;;;1.45;1.35;;;-0.40;99.90;;;;;;5068655;28;20656;-64
2023/01/20 01:06:15;;;;;;;1.90;1.73;;;-0.40;99.90;;;;;;5065796;28;20757;-65
2023/01/20 01:08:44;;;;;;;2.25;1.98;;;-0.40;99.90;;;;;;5063724;28;20275;-64
2023/01/20 01:11:12;;;;;;;1.95;1.83;;;-0.40;99.90;;;;;;5068215;28;20295;-64
2023/01/20 01:13:42;;;;;;;1.73;1.42;;;-0.50;99.90;;;;;;5064547;28;20285;-64
2023/01/20 01:16:12;;;;;;;0.82;0.75;;;-0.60;99.90;;;;;;5068752;28;20305;-64
2023/01/20 01:18:40;;;;;;;1.00;0.90;;;-0.70;99.90;;;;;;5068191;28;20199;-64
2023/01/20 01:21:10;;;;;;;1.08;0.95;;;-0.70;99.90;;;;;;5069756;28;20644;-64
2023/01/20 01:23:38;;;;;;;1.33;1.10;;;-0.80;99.90;;;;;;5065515;28;20191;-64
2023/01/20 01:26:06;;;;;;;3.25;1.48;;;-0.90;99.90;;;;;;5068083;28;20222;-64
2023/01/20 01:28:34;;;;;;;0.85;0.85;;;-1.00;99.90;;;;;;5069916;28;20231;-64
2023/01/20 01:31:04;;;;;;;1.88;1.60;;;-0.90;99.90;;;;;;5065396;28;20207;-63
2023/01/20 01:33:33;;;;;;;1.25;0.90;;;-0.80;99.90;;;;;;5066192;28;20729;-65
2023/01/20 01:36:02;;;;;;;1.23;0.80;;;-0.50;99.90;;;;;;5070957;28;20217;-65
2023/01/20 01:38:31;;;;;;;1.35;1.25;;;0.40;99.90;;;;;;5060464;28;20230;-65
2023/01/20 01:40:59;;;;;;;1.40;1.30;;;0.80;99.90;;;;;;5065825;28;20191;-64
2023/01/20 01:43:29;;;;;;;1.70;1.30;;;1.30;99.90;;;;;;5072167;28;20199;-64
2023/01/20 01:45:58;;;;;;;1.85;1.75;;;1.60;99.90;;;;;;5072658;28;20231;-65
2023/01/20 01:48:31;;;;;;;1.25;1.02;;;1.80;99.90;;;;;;5070239;28;20632;-64
2023/01/20 01:51:04;;;;;;;1.30;1.20;;;1.90;99.90;;;;;;5066388;28;20265;-64
2023/01/20 01:53:46;;;;;;;1.30;1.20;;;2.10;99.90;;;;;;5072294;28;20652;-64
2023/01/20 01:56:15;;;;;;;1.55;1.45;;;2.20;99.90;;;;;;5071958;28;20313;-64
2023/01/20 01:58:48;;;;;;;2.25;1.70;;;2.30;99.90;;;;;;5072492;28;20278;-64
2023/01/20 02:01:16;;;;;;;2.38;1.70;;;2.40;99.90;;;;;;5071558;28;20661;-65
2023/01/20 02:03:52;;;;;;;2.35;1.48;;;2.50;99.90;;;;;;5072200;28;20193;-65
2023/01/20 02:06:22;;;;;;;1.85;1.40;;;2.60;99.90;;;;;;5072394;28;20301;-66
2023/01/20 02:08:50;;;;;;;2.42;1.20;;;2.60;99.90;;;;;;5072604;28;20646;-65
2023/01/20 02:11:18;;;;;;;3.75;1.50;;;2.70;99.90;;;;;;5071288;28;20668;-65
2023/01/20 02:13:46;;;;;;;1.67;1.10;;;2.40;99.90;;;;;;5072047;28;20220;-65
2023/01/20 02:16:20;;;;;;;3.28;2.42;;;2.40;99.90;;;;;;5071771;28;20296;-66
2023/01/20 02:19:01;;;;;;;1.33;1.23;;;2.40;99.90;;;;;;5068313;28;20618;-65
2023/01/20 02:22:05;;;;;;;1.40;1.30;;;2.40;99.90;;;;;;5068108;28;20202;-65
2023/01/20 02:24:56;;;;;;;1.25;1.15;;;2.50;99.90;;;;;;5066679;28;20224;-65
2023/01/20 02:27:38;;;;;;;1.10;1.02;;;2.50;99.90;;;;;;5066746;28;20211;-65
2023/01/20 02:30:34;;;;;;;1.17;1.08;;;2.60;99.90;;;;;;5062416;28;20658;-65
2023/01/20 02:33:10;;;;;;;1.23;1.13;;;2.80;99.90;;;;;;5064527;28;20209;-65
2023/01/20 02:35:42;;;;;;;1.45;1.20;;;2.80;99.90;;;;;;5065850;28;20215;-65
2023/01/20 02:38:19;;;;;;;1.10;1.00;;;2.80;99.90;;;;;;5069561;28;20578;-65
2023/01/20 02:40:54;;;;;;;2.78;0.80;;;2.80;99.90;;;;;;5066579;28;20203;-65
2023/01/20 02:43:31;;;;;;;1.33;1.23;;;2.70;99.90;;;;;;5065723;28;20274;-65
2023/01/20 02:46:08;;;;;;;1.00;0.90;;;2.70;99.90;;;;;;5063303;28;20326;-65
2023/01/20 02:48:43;;;;;;;1.30;1.20;;;2.70;99.90;;;;;;5070346;28;20207;-65
2023/01/20 02:51:16;;;;;;;1.50;1.25;;;2.60;99.90;;;;;;5065148;28;20203;-66
2023/01/20 02:53:49;;;;;;;1.30;1.17;;;2.40;99.90;;;;;;5062649;28;20291;-67
2023/01/20 02:56:19;;;;;;;2.40;1.58;;;2.40;99.90;;;;;;5069223;28;20223;-67
2023/01/20 02:58:50;;;;;;;1.88;1.67;;;2.40;99.90;;;;;;5051539;28;20222;-66
2023/01/20 03:01:23;;;;;;;2.35;2.15;;;2.50;99.90;;;;;;5065965;28;20736;-67
2023/01/20 03:03:56;;;;;;;1.75;1.55;;;2.50;99.90;;;;;;5064331;28;20709;-67
2023/01/20 03:06:29;;;;;;;1.25;1.15;;;2.50;99.90;;;;;;5065694;28;20758;-67
2023/01/20 03:09:00;;;;;;;2.75;2.05;;;2.50;99.90;;;;;;5066312;28;20201;-66
2023/01/20 03:11:31;;;;;;;2.05;1.70;;;2.40;99.90;;;;;;5064022;28;20201;-67
2023/01/20 03:14:04;;;;;;;1.50;1.40;;;2.40;99.90;;;;;;5065244;28;20227;-66
2023/01/20 03:16:32;;;;;;;2.00;1.90;;;2.40;99.90;;;;;;5065557;28;20303;-67
2023/01/20 03:19:02;;;;;;;2.20;2.00;;;2.40;99.90;;;;;;5062347;28;20572;-67
2023/01/20 03:21:30;;;;;;;2.58;1.48;;;2.40;99.90;;;;;;5069187;28;20199;-64
2023/01/20 03:24:01;;;;;;;2.08;1.88;;;2.50;99.90;;;;;;5069502;28;20192;-64
2023/01/20 03:26:29;;;;;;;2.88;2.38;;;2.60;99.90;;;;;;5068159;28;20307;-64
2023/01/20 03:28:58;;;;;;;1.98;1.48;;;2.60;99.90;;;;;;5062031;28;20193;-66
2023/01/20 03:31:29;;;;;;;2.95;2.45;;;2.70;99.90;;;;;;5067157;28;20204;-66
2023/01/20 03:34:00;;;;;;;2.03;1.52;;;2.70;99.90;;;;;;5065287;28;20227;-66
2023/01/20 03:36:31;;;;;;;1.48;1.30;;;2.70;99.90;;;;;;5068235;28;20639;-67
2023/01/20 03:39:00;;;;;;;3.47;1.55;;;2.70;99.90;;;;;;5068079;28;20199;-66
2023/01/20 03:41:52;;;;;;;1.92;1.38;;;2.70;99.90;;;;;;5066390;28;20187;-66
2023/01/20 03:44:24;;;;;;;1.40;1.00;;;2.70;99.90;;;;;;5068622;28;20278;-66
2023/01/20 03:46:56;;;;;;;1.58;1.27;;;2.80;99.90;;;;;;5060071;28;20289;-64
2023/01/20 03:49:29;;;;;;;1.17;1.02;;;2.90;99.90;;;;;;5069094;28;20584;-65
2023/01/20 03:52:04;;;;;;;0.82;0.68;;;2.90;99.90;;;;;;5063800;28;20217;-66
2023/01/20 03:54:37;;;;;;;0.80;0.80;;;2.90;99.90;;;;;;5064698;28;20223;-65
2023/01/20 03:57:11;;;;;;;1.60;1.20;;;3.00;99.90;;;;;;5069759;28;20490;-64
2023/01/20 03:59:42;;;;;;;1.40;0.93;;;3.00;99.90;;;;;;5048342;28;20293;-64
2023/01/20 04:02:11;;;;;;;0.60;0.60;;;3.10;99.90;;;;;;5064955;28;20202;-64
2023/01/20 04:04:42;;;;;;;1.70;1.08;;;3.10;99.90;;;;;;5064246;28;20303;-64
2023/01/20 04:07:17;;;;;;;0.60;0.60;;;2.80;99.90;;;;;;5070359;28;20279;-64
2023/01/20 04:09:50;;;;;;;1.92;1.27;;;2.20;99.90;;;;;;5070117;28;20283;-64
2023/01/20 04:12:18;;;;;;;1.17;1.08;;;2.00;99.90;;;;;;5067981;28;20211;-64
2023/01/20 04:14:46;;;;;;;2.00;1.42;;;1.90;99.90;;;;;;5068018;28;20229;-65
2023/01/20 04:17:14;;;;;;;1.83;1.45;;;1.90;99.90;;;;;;5062021;28;20743;-65
2023/01/20 04:19:42;;;;;;;1.00;0.90;;;1.90;99.90;;;;;;5068689;28;20242;-64
2023/01/20 04:22:28;;;;;;;1.33;1.23;;;2.10;99.90;;;;;;5073570;28;20253;-65
2023/01/20 04:25:01;;;;;;;1.25;1.08;;;2.30;99.90;;;;;;5068590;28;20249;-64
2023/01/20 04:27:28;;;;;;;0.98;0.90;;;2.30;99.90;;;;;;5071504;28;20322;-65
2023/01/20 04:29:57;;;;;;;1.52;1.42;;;2.40;99.90;;;;;;5071175;28;20215;-65
2023/01/20 04:32:24;;;;;;;1.95;1.25;;;2.50;99.90;;;;;;5070775;28;20907;-65
2023/01/20 04:34:52;;;;;;;1.75;1.23;;;2.50;99.90;;;;;;5069405;28;20250;-65
2023/01/20 04:37:20;;;;;;;1.83;1.65;;;2.60;99.90;;;;;;5063454;28;20278;-64
2023/01/20 04:39:49;;;;;;;1.50;1.20;;;2.60;99.90;;;;;;5067130;28;20684;-65
2023/01/20 04:42:17;;;;;;;1.15;0.90;;;2.60;99.90;;;;;;5068250;28;20227;-65
2023/01/20 04:44:45;;;;;;;2.60;2.40;;;2.60;99.90;;;;;;5069078;28;20204;-65
2023/01/20 04:47:13;;;;;;;1.48;1.20;;;2.60;99.90;;;;;;5069125;28;20203;-65
2023/01/20 04:49:41;;;;;;;1.55;1.45;;;2.60;99.90;;;;;;5068612;28;20259;-64
2023/01/20 04:52:09;;;;;;;1.90;1.23;;;2.60;99.90;;;;;;5073514;28;20296;-64
2023/01/20 04:54:36;;;;;;;1.00;0.90;;;2.60;99.90;;;;;;5067293;28;20221;-64
2023/01/20 04:57:06;;;;;;;1.10;0.93;;;2.50;99.90;;;;;;5063207;28;20195;-64
2023/01/20 04:59:34;;;;;;;1.02;0.82;;;2.50;99.90;;;;;;5068839;28;20290;-64
2023/01/20 05:02:01;;;;;;;1.40;1.10;;;2.60;99.90;;;;;;5069011;28;20198;-64
2023/01/20 05:04:29;;;;;;;1.75;1.50;;;2.70;99.90;;;;;;5068223;28;20242;-64
2023/01/20 05:06:57;;;;;;;1.33;1.23;;;2.80;99.90;;;;;;5070595;28;20279;-63
2023/01/20 05:09:25;;;;;;;1.05;0.95;;;2.90;99.90;;;;;;5070154;28;20238;-66
2023/01/20 05:11:53;;;;;;;1.42;1.25;;;2.90;99.90;;;;;;5068319;28;20200;-66
2023/01/20 05:14:22;;;;;;;1.85;1.55;;;3.00;99.90;;;;;;5061985;28;20216;-66
2023/01/20 05:16:50;;;;;;;1.45;0.90;;;2.90;99.90;;;;;;5062466;28;20216;-65
2023/01/20 05:19:18;;;;;;;2.25;0.95;;;2.80;99.90;;;;;;5068127;28;20214;-64
2023/01/20 05:21:45;;;;;;;1.75;1.33;;;2.90;99.90;;;;;;5069010;28;20204;-65
2023/01/20 05:24:13;;;;;;;1.17;1.08;;;2.60;99.90;;;;;;5072046;28;20202;-65
2023/01/20 05:26:41;;;;;;;1.40;1.25;;;2.70;99.90;;;;;;5071421;28;20216;-65
2023/01/20 05:29:09;;;;;;;1.48;1.38;;;2.80;99.90;;;;;;5071513;28;20200;-65
2023/01/20 05:31:41;;;;;;;0.80;0.70;;;2.90;99.90;;;;;;5070132;28;20287;-65
2023/01/20 05:34:10;;;;;;;1.08;0.93;;;2.90;99.90;;;;;;5071457;28;20207;-65
2023/01/20 05:36:38;;;;;;;1.25;1.13;;;3.00;99.90;;;;;;5071193;28;20223;-64
2023/01/20 05:39:06;;;;;;;2.33;1.48;;;2.90;99.90;;;;;;5071064;28;20204;-64
2023/01/20 05:41:34;;;;;;;1.17;1.08;;;2.90;99.90;;;;;;5070907;28;20276;-64
2023/01/20 05:44:01;;;;;;;1.45;0.93;;;3.00;99.90;;;;;;5068426;28;20735;-64
2023/01/20 05:46:29;;;;;;;1.05;0.95;;;2.90;99.90;;;;;;5069677;28;20231;-65
2023/01/20 05:48:59;;;;;;;1.67;1.58;;;3.10;99.90;;;;;;5067447;28;20209;-65
2023/01/20 05:51:27;;;;;;;1.35;1.23;;;3.10;99.90;;;;;;5065925;28;20243;-65
2023/01/20 05:53:55;;;;;;;1.40;1.30;;;3.00;99.90;;;;;;5066369;28;20205;-65
2023/01/20 05:56:23;;;;;;;1.17;1.00;;;2.80;99.90;;;;;;5066698;28;20307;-65
2023/01/20 05:58:54;;;;;;;1.38;1.23;;;2.90;99.90;;;;;;5069721;28;20282;-64
2023/01/20 06:01:23;;;;;;;1.38;1.27;;;3.00;99.90;;;;;;5069374;28;20212;-65
2023/01/20 06:03:51;;;;;;;1.25;1.15;;;2.90;99.90;;;;;;5068972;28;20678;-64
2023/01/20 06:06:20;;;;;;;0.88;0.70;;;3.00;99.90;;;;;;5068261;28;20250;-65
2023/01/20 06:08:48;;;;;;;1.20;0.82;;;2.90;99.90;;;;;;5068874;28;20205;-64
2023/01/20 06:11:16;;;;;;;1.27;1.10;;;3.00;99.90;;;;;;5063916;28;20262;-64
2023/01/20 06:13:46;;;;;;;1.52;1.42;;;3.10;99.90;;;;;;5065831;28;20255;-65
2023/01/20 06:16:14;;;;;;;1.05;0.95;;;3.20;99.90;;;;;;5064973;28;20215;-65
2023/01/20 06:18:42;;;;;;;1.20;0.85;;;3.40;99.90;;;;;;5066288;28;20199;-65
2023/01/20 06:21:10;;;;;;;2.35;1.10;;;3.40;99.90;;;;;;5064717;28;20285;-65
2023/01/20 06:23:40;;;;;;;0.85;0.80;;;3.50;99.90;;;;;;5063344;28;20236;-65
2023/01/20 06:26:12;;;;;;;0.90;0.90;;;3.50;99.90;;;;;;5063963;28;20233;-65
2023/01/20 06:28:40;;;;;;;1.38;1.27;;;3.60;99.90;;;;;;5061836;28;20219;-64
2023/01/20 06:31:10;;;;;;;1.48;1.38;;;3.50;99.90;;;;;;5064175;28;20205;-65
2023/01/20 06:33:38;;;;;;;1.25;1.20;;;3.10;99.90;;;;;;5067038;28;20257;-65
2023/01/20 06:36:07;;;;;;;1.20;1.10;;;3.20;99.90;;;;;;5064988;28;20236;-65
2023/01/20 06:38:35;;;;;;;1.45;1.13;;;3.30;99.90;;;;;;5066910;28;20245;-65
2023/01/20 06:41:09;;;;;;;1.40;1.30;;;3.30;99.90;;;;;;5061993;28;20223;-65
2023/01/20 06:43:38;;;;;;;0.88;0.70;;;3.00;99.90;;;;;;5067590;28;20275;-65
2023/01/20 06:46:09;;;;;;;0.90;0.90;;;2.80;99.90;;;;;;5070219;28;20670;-65
2023/01/20 06:48:37;;;;;;;1.38;1.10;;;2.60;99.90;;;;;;5070366;28;20212;-65
2023/01/20 06:51:07;;;;;;;1.38;1.27;;;2.60;99.90;;;;;;5069665;28;20635;-65
2023/01/20 06:53:35;;;;;;;2.10;1.42;;;2.30;99.90;;;;;;5070992;28;20652;-65
2023/01/20 06:56:05;;;;;;;1.02;0.95;;;1.80;99.90;;;;;;5070628;28;20220;-65
2023/01/20 06:58:33;;;;;;;1.30;1.10;;;1.90;99.90;;;;;;5070671;28;20260;-65
2023/01/20 07:01:07;;;;;;;1.40;1.30;;;2.10;99.90;;;;;;5069873;28;20199;-65
2023/01/20 07:03:35;;;;;;;0.80;0.75;;;2.00;99.90;;;;;;5070306;28;20661;-65
2023/01/20 07:06:05;;;;;;;2.25;1.30;;;2.10;99.90;;;;;;5070049;28;20311;-65
2023/01/20 07:08:33;;;;;;;1.00;0.80;;;2.20;99.90;;;;;;5070739;28;20294;-64
2023/01/20 07:11:01;;;;;;;1.92;1.40;;;2.20;99.90;;;;;;5069902;28;20224;-65
2023/01/20 07:13:30;;;;;;;1.38;1.20;;;2.50;99.90;;;;;;5070258;28;20278;-66
2023/01/20 07:15:58;;;;;;;1.20;1.10;;;2.70;99.90;;;;;;5069837;28;20302;-65
2023/01/20 07:18:26;;;;;;;2.00;1.70;;;2.80;99.90;;;;;;5069775;28;20214;-64
2023/01/20 07:20:54;;;;;;;2.05;1.85;;;2.90;99.90;;;;;;5064250;28;20220;-64
2023/01/20 07:23:23;;;;;;;4.78;2.28;;;3.00;99.90;;;;;;5056888;28;20201;-65
2023/01/20 07:25:57;;;;;;;2.13;1.92;;;3.10;99.90;;;;;;5094311;22;20259;-63
2023/01/20 07:28:25;;;;;;;2.00;1.77;;;3.00;99.90;;;;;;5067443;28;20612;-64
2023/01/20 07:30:55;;;;;;;2.65;2.40;;;2.60;99.90;;;;;;5066951;28;20627;-65
2023/01/20 07:33:22;;;;;;;1.27;1.17;;;2.30;99.90;;;;;;5068774;28;20199;-63
2023/01/20 07:35:52;;;;;;;1.77;1.25;;;2.10;99.90;;;;;;5067511;28;20591;-63
2023/01/20 07:38:20;;;;;;;3.20;1.50;;;2.00;99.90;;;;;;5069001;28;20191;-64
2023/01/20 07:40:48;;;;;;;1.08;0.93;;;1.80;99.90;;;;;;5068363;28;20291;-63
2023/01/20 07:43:16;;;;;;;2.28;1.20;;;1.80;99.90;;;;;;5069717;28;20669;-63
2023/01/20 07:45:44;;;;;;;2.38;1.85;;;1.80;99.90;;;;;;5070720;28;20302;-63
2023/01/20 07:48:13;;;;;;;1.63;1.52;;;1.70;99.90;;;;;;5071002;28;20196;-63
2023/01/20 07:50:41;;;;;;;2.08;1.65;;;1.40;99.90;;;;;;5061748;28;20286;-63
2023/01/20 07:53:09;;;;;;;1.40;1.30;;;1.40;99.90;;;;;;5071348;28;20207;-64
2023/01/20 07:55:37;;;;;;;1.95;1.48;;;1.40;99.90;;;;;;5074297;28;20230;-63
2023/01/20 07:58:04;;;;;;;1.75;1.63;;;1.40;99.90;;;;;;5074388;28;20294;-63
2023/01/20 08:00:32;;;;;;;2.33;1.58;;;1.30;99.90;;;;;;5073897;28;20295;-63
2023/01/20 08:03:00;;;;;;;1.77;1.63;;;1.20;99.90;;;;;;5074446;28;20191;-63
2023/01/20 08:05:31;;;;;;;3.38;1.90;;;1.20;99.90;;;;;;5074336;28;20215;-64
2023/01/20 08:07:59;;;;;;;1.20;1.00;;;1.30;99.90;;;;;;5074299;28;20196;-64
2023/01/20 08:10:28;;;;;;;1.65;1.20;;;1.30;99.90;;;;;;5073610;28;20298;-64
2023/01/20 08:12:55;;;;;;;2.53;2.33;;;1.10;99.90;;;;;;5074348;28;20211;-63
2023/01/20 08:15:23;;;;;;;3.45;1.67;;;0.90;99.90;;;;;;5073970;28;20227;-63
2023/01/20 08:17:53;;;;;;;3.38;2.30;;;0.90;99.90;;;;;;5074051;28;20294;-64
2023/01/20 08:20:21;;;;;;;2.95;2.35;;;0.90;99.90;;;;;;5073076;28;20256;-63
2023/01/20 08:22:50;;;;;;;2.45;1.90;;;0.90;99.90;;;;;;5074329;28;20218;-63
2023/01/20 08:25:18;;;;;;;3.15;2.55;;;1.00;99.90;;;;;;5073536;28;20198;-64
2023/01/20 08:27:48;;;;;;;6.00;3.20;;;1.10;99.90;;;;;;5073922;28;20203;-63
2023/01/20 08:30:17;;;;;;;2.85;2.05;;;1.00;99.90;;;;;;5073447;28;20237;-64
2023/01/20 08:32:44;;;;;;;2.55;2.13;;;1.10;99.90;;;;;;5073947;28;20304;-64
2023/01/20 08:35:12;;;;;;;2.55;2.05;;;1.10;99.90;;;;;;5073825;28;20581;-63
2023/01/20 08:37:41;;;;;;;3.33;3.03;;;1.00;99.90;;;;;;5073816;28;20550;-63
2023/01/20 08:40:11;;;;;;;2.60;1.88;;;1.10;99.90;;;;;;5073172;28;20185;-63
2023/01/20 08:42:39;;;;;;;4.35;3.55;;;1.10;99.90;;;;;;5074025;28;20290;-63
2023/01/20 08:45:09;;;;;;;3.17;2.40;;;1.10;99.90;;;;;;5073830;28;20234;-64
2023/01/20 08:47:37;;;;;;;3.80;2.70;;;1.20;99.90;;;;;;5073928;28;20198;-63
2023/01/20 08:50:07;;;;;;;2.58;1.55;;;1.40;99.90;;;;;;5073020;28;20282;-63
2023/01/20 08:52:35;;;;;;;5.30;3.63;;;1.70;99.90;;;;;;5074097;28;20201;-64
2023/01/20 08:55:03;;;;;;;4.35;3.38;;;2.10;99.90;;;;;;5073254;28;20249;-63
2023/01/20 08:57:33;;;;;;;3.17;2.25;;;2.30;99.90;;;;;;5073692;28;20217;-64
2023/01/20 09:00:00;;;;;;;4.43;2.65;;;2.50;99.90;;;;;;5072903;28;20206;-63
2023/01/20 09:02:28;;;;;;;3.38;2.17;;;2.60;99.90;;;;;;5073481;28;20191;-64
2023/01/20 09:04:56;;;;;;;3.97;2.70;;;2.80;99.90;;;;;;5072174;28;20285;-64
2023/01/20 09:07:25;;;;;;;3.17;2.30;;;3.10;99.90;;;;;;5073238;28;20211;-64
2023/01/20 09:09:53;;;;;;;5.10;3.45;;;3.50;99.90;;;;;;5072563;28;20196;-64
2023/01/20 09:12:21;;;;;;;2.45;2.25;;;3.90;99.90;;;;;;5073272;28;20215;-64
2023/01/20 09:14:50;;;;;;;4.53;3.55;;;4.00;99.90;;;;;;5072968;28;20226;-63
2023/01/20 09:17:18;;;;;;;8.35;4.53;;;4.10;99.90;;;;;;5072942;28;20223;-64
2023/01/20 09:19:46;;;;;;;3.90;3.30;;;4.20;99.90;;;;;;5072217;28;20497;-64
2023/01/20 09:22:14;;;;;;;3.88;2.45;;;4.30;99.90;;;;;;5073247;28;20196;-64
2023/01/20 09:24:43;;;;;;;3.35;3.10;;;4.30;99.90;;;;;;5072863;28;20276;-64
2023/01/20 09:27:11;;;;;;;3.88;3.05;;;4.40;99.90;;;;;;5072673;28;20747;-64
2023/01/20 09:29:38;;;;;;;3.30;2.97;;;4.60;99.90;;;;;;5072322;28;20296;-63
2023/01/20 09:32:08;;;;;;;4.78;3.30;;;4.80;99.90;;;;;;5072939;28;20293;-64
2023/01/20 09:34:36;;;;;;;4.55;3.38;;;4.80;99.90;;;;;;5072351;28;20339;-63
2023/01/20 09:45:33;;;;;;;3.75;3.05;;;3.30;99.90;;;;;;5072536;28;20779;-63
2023/01/20 09:48:13;;;;;;;6.90;5.15;;;3.20;99.90;;;;;;5072538;28;20277;-64
2023/01/20 09:53:50;;;;;;;4.97;3.85;;;2.80;99.90;;;;;;5072458;28;20195;-63
2023/01/20 09:56:22;;;;;;;6.47;3.33;;;2.60;99.90;;;;;;5072289;28;20251;-64
2023/01/20 09:58:57;;;;;;;5.57;3.85;;;2.20;99.90;;;;;;5072462;28;20575;-63
2023/01/20 10:01:29;;;;;;;3.45;2.70;;;2.10;99.90;;;;;;5071638;28;20648;-63
2023/01/20 10:04:05;;;;;;;4.43;3.60;;;2.10;99.90;;;;;;5072179;28;20200;-63
2023/01/20 10:06:38;;;;;;;5.38;3.40;;;2.10;99.90;;;;;;5072244;28;20588;-63
2023/01/20 10:09:16;;;;;;;4.40;2.95;;;2.10;99.90;;;;;;5072377;28;20283;-65
2023/01/20 10:11:48;;;;;;;5.47;3.90;;;1.90;99.90;;;;;;5071812;28;20278;-64
2023/01/20 10:14:21;;;;;;;6.30;3.65;;;1.80;99.90;;;;;;5072095;28;20172;-64
2023/01/20 10:16:56;;;;;;;4.82;3.53;;;1.70;99.90;;;;;;5071936;28;20222;-64
2023/01/20 10:19:31;;;;;;;4.43;3.03;;;1.90;99.90;;;;;;5071649;28;20200;-63
2023/01/20 10:22:09;;;;;;;5.95;3.30;;;1.90;99.90;;;;;;5068104;28;20200;-64
2023/01/20 10:24:43;;;;;;;4.75;3.33;;;2.00;99.90;;;;;;5071407;28;20202;-64
2023/01/20 10:27:11;;;;;;;3.42;3.00;;;2.10;99.90;;;;;;5071500;28;20234;-64
2023/01/20 10:29:43;;;;;;;3.75;2.78;;;2.10;99.90;;;;;;5071029;28;20199;-63
2023/01/20 10:32:29;;;;;;;4.38;2.90;;;2.30;99.90;;;;;;5071816;28;20221;-64
2023/01/20 10:35:03;;;;;;;3.35;3.05;;;2.70;99.90;;;;;;5071320;28;20610;-64
2023/01/20 10:37:31;;;;;;;3.25;2.65;;;2.60;99.90;;;;;;5071558;28;20217;-63
2023/01/20 10:40:07;;;;;;;5.13;3.42;;;2.60;99.90;;;;;;5070722;28;20189;-63
2023/01/20 10:42:35;;;;;;;4.80;3.67;;;2.70;99.90;;;;;;5071630;28;20241;-63
2023/01/20 10:45:03;;;;;;;4.30;3.28;;;2.90;99.90;;;;;;5071285;28;20200;-65
2023/01/20 10:47:43;;;;;;;4.60;3.88;;;3.10;99.90;;;;;;5071133;28;20188;-65
2023/01/20 10:50:31;;;;;;;3.85;3.30;;;3.20;99.90;;;;;;5070874;28;20290;-64
2023/01/20 10:53:28;;;;;;;3.25;2.95;;;3.60;99.90;;;;;;5066009;28;20200;-64
2023/01/20 10:56:07;;;;;;;5.22;3.22;;;3.80;99.90;;;;;;5051039;28;20220;-64
2023/01/20 10:58:38;;;;;;;12.93;6.72;;;3.90;99.90;;;;;;5051591;28;20215;-64
2023/01/20 11:01:08;;;;;;;4.00;2.40;;;3.90;99.90;;;;;;5050598;28;20284;-64
2023/01/20 11:03:40;;;;;;;4.72;3.70;;;3.60;99.90;;;;;;5051430;28;20196;-64
2023/01/20 11:06:18;;;;;;;6.20;4.45;;;3.60;99.90;;;;;;5050869;28;20245;-64
2023/01/20 11:08:47;;;;;;;4.20;3.70;;;3.60;99.90;;;;;;5051178;28;20246;-64
2023/01/20 11:11:18;;;;;;;5.75;3.53;;;3.60;99.90;;;;;;5050412;28;20196;-64
2023/01/20 11:13:46;;;;;;;5.63;3.72;;;3.70;99.90;;;;;;5051164;28;20231;-64
2023/01/20 11:16:18;;;;;;;4.10;2.65;;;3.80;99.90;;;;;;5050943;28;20217;-65
2023/01/20 11:18:56;;;;;;;4.13;3.72;;;3.80;99.90;;;;;;5051014;28;20686;-64
2023/01/20 11:21:27;;;;;;;3.95;2.92;;;3.60;99.90;;;;;;5058168;28;20242;-64
2023/01/20 11:23:56;;;;;;;3.08;2.80;;;3.40;99.90;;;;;;5070885;28;20250;-63
2023/01/20 11:26:26;;;;;;;3.60;3.15;;;3.30;99.90;;;;;;5070757;28;20323;-64
2023/01/20 11:28:56;;;;;;;4.88;3.75;;;3.30;99.90;;;;;;5070705;28;20201;-64
2023/01/20 11:31:36;;;;;;;4.25;3.85;;;3.40;99.90;;;;;;5070259;28;20257;-64
2023/01/20 11:34:21;;;;;;;3.60;3.28;;;3.40;99.90;;;;;;5070803;28;20201;-65
2023/01/20 11:37:00;;;;;;;2.95;2.75;;;3.50;99.90;;;;;;5070762;28;20220;-64
2023/01/20 11:39:31;;;;;;;3.70;2.95;;;3.60;99.90;;;;;;5070643;28;20298;-64
2023/01/20 11:42:16;;;;;;;3.38;3.08;;;3.70;99.90;;;;;;5070860;28;20197;-64
2023/01/20 11:44:44;;;;;;;3.28;3.00;;;3.90;99.90;;;;;;5070752;28;20669;-64
2023/01/20 11:47:23;;;;;;;3.40;3.10;;;3.90;99.90;;;;;;5070775;28;20696;-64
2023/01/20 11:50:22;;;;;;;4.85;3.03;;;3.80;99.90;;;;;;5070144;28;20552;-64
2023/01/20 11:52:52;;;;;;;2.38;2.17;;;3.90;99.90;;;;;;5070585;28;20660;-64
2023/01/20 11:55:22;;;;;;;3.67;3.20;;;3.80;99.90;;;;;;5070448;28;20229;-64
2023/01/20 11:57:53;;;;;;;2.55;2.08;;;3.90;99.90;;;;;;5070841;28;20243;-64
2023/01/20 12:00:40;;;;;;;1.80;1.70;;;4.10;99.90;;;;;;5069945;28;20203;-64
2023/01/20 12:03:33;;;;;;;3.10;2.00;;;4.20;99.90;;;;;;5070733;28;20224;-64
2023/01/20 12:06:09;;;;;;;2.65;2.20;;;4.20;99.90;;;;;;5047496;28;20227;-64
2023/01/20 12:08:47;;;;;;;2.65;2.30;;;4.20;99.90;;;;;;5070545;28;20195;-64
2023/01/20 12:11:18;;;;;;;4.95;3.00;;;4.20;99.90;;;;;;5069785;28;20196;-64
2023/01/20 12:14:21;;;;;;;4.00;3.10;;;4.20;99.90;;;;;;5070411;28;20197;-64
2023/01/20 12:17:16;;;;;;;3.83;2.75;;;4.40;99.90;;;;;;5070215;28;20307;-65
2023/01/20 12:19:57;;;;;;;1.90;1.75;;;4.30;99.90;;;;;;5069929;28;20571;-64
2023/01/20 12:22:32;;;;;;;2.53;2.30;;;4.30;99.90;;;;;;5070099;28;20740;-64
2023/01/20 12:25:08;;;;;;;3.28;2.30;;;4.30;99.90;;;;;;5070093;28;20282;-64
2023/01/20 12:27:42;;;;;;;2.13;1.92;;;4.10;99.90;;;;;;5070559;28;20211;-64
2023/01/20 12:30:24;;;;;;;5.63;4.13;;;3.80;99.90;;;;;;5069779;28;20191;-64
2023/01/20 12:32:52;;;;;;;4.35;2.85;;;3.70;99.90;;;;;;5070544;28;20290;-64
2023/01/20 12:35:25;;;;;;;1.95;1.75;;;3.60;99.90;;;;;;5070144;28;20198;-64
2023/01/20 12:37:56;;;;;;;3.60;3.17;;;3.50;99.90;;;;;;5069956;28;20220;-64
2023/01/20 12:40:35;;;;;;;8.38;5.15;;;3.50;99.90;;;;;;5070562;28;20774;-64
2023/01/20 12:43:32;;;;;;;5.90;3.38;;;3.30;99.90;;;;;;5073983;28;20225;-64
2023/01/20 12:46:20;;;;;;;3.22;2.50;;;3.30;99.90;;;;;;5073639;28;20558;-64
2023/01/20 12:48:58;;;;;;;2.05;1.80;;;3.50;99.90;;;;;;5073934;28;20221;-64
2023/01/20 12:51:42;;;;;;;2.58;2.13;;;3.60;99.90;;;;;;5072989;28;20294;-64
2023/01/20 12:54:39;;;;;;;2.38;2.17;;;3.60;99.90;;;;;;5073494;28;20708;-64
2023/01/20 12:57:27;;;;;;;1.95;1.83;;;3.60;99.90;;;;;;5073675;28;20219;-64
2023/01/20 13:00:22;;;;;;;2.45;2.25;;;3.50;99.90;;;;;;5073104;28;20216;-64
2023/01/20 13:03:09;;;;;;;3.40;2.15;;;3.20;99.90;;;;;;5074023;28;20192;-64
2023/01/20 13:05:56;;;;;;;2.40;2.20;;;3.20;99.90;;;;;;5073131;28;20700;-64
2023/01/20 13:08:35;;;;;;;2.85;2.45;;;3.10;99.90;;;;;;5073603;28;20196;-64
2023/01/20 13:11:14;;;;;;;3.13;2.83;;;3.20;99.90;;;;;;5072722;28;20200;-64
2023/01/20 13:13:57;;;;;;;3.05;2.80;;;3.10;99.90;;;;;;5073314;28;20198;-64
2023/01/20 13:16:33;;;;;;;2.97;2.60;;;3.20;99.90;;;;;;5073039;28;20217;-64
2023/01/20 13:19:08;;;;;;;2.42;2.22;;;3.30;99.90;;;;;;5073258;28;20208;-64
2023/01/20 13:21:36;;;;;;;4.75;3.90;;;3.30;99.90;;;;;;5071905;28;20278;-64
2023/01/20 13:24:06;;;;;;;4.30;3.22;;;3.40;99.90;;;;;;5073017;28;20627;-64
2023/01/20 13:26:36;;;;;;;2.50;2.30;;;3.50;99.90;;;;;;5081942;22;20332;-72
2023/01/20 13:29:05;;;;;;;3.83;2.88;;;3.60;99.90;;;;;;5033034;28;20634;-72
2023/01/20 13:31:44;;;;;;;2.97;2.63;;;3.60;99.90;;;;;;5032520;28;20297;-71